Delta Virtual Airport Information Service

Chengdu Shuangliu International Airport

ICAO: ZUUU Country: China
Latitude: 30.5785 Longitude: 103.947
Latest Arrival : HVN100 (VVNB-ZUUU) Latest Departure : DAC705 (ZUUU-KORD)


WX CaptureLIVE
Data provided by noaa.gov | Fetched at 17:29:00

METAR : ZUUU 242200Z 22002MPS CAVOK 17/16 Q1016 NOSIG

TAF : ZUUU 241505Z 2418/2518 02003MPS 6000 SCT040 TX25/2506Z TN17/2422Z


Runway Data for ZUUU
Data provided by openaviationdata.com

Runway ID Mag Var Hdg Length Elevation Surface ILS Freq ILS Id ILS Slope
2 -2 24° 11833 ft 1624 ft Concrete 111.1 IZW 3
20 -2 204° 11833 ft 1624 ft Concrete 109.1 IAA 3

Chengdu Shuangliu International Airport, China
Use only for reference purposes



Not for navigational purposes.